Wellington, CO

6:07 PM MDT on August 30, 2016 (GMT -0600)
La Luna Dairy | | Change Station

Elev 5250 ft 40.72 °N, 105.02 °W | Updated 2 minutes ago

Clear
Clear
79.0 °F
Feels Like 79 °F
N
9.0
Wind Variable Wind from East
Gusts 11.0 mph

Today
High -- | Low -- °F
--% Chance of Precip.
Yesterday
High -- | Low -- °F
Precip. -- in
Pressure 30.23 in
Visibility 10.0 miles
Clouds Clear
Heat Index 79 °F
Dew Point 53 °F
Humidity 41%
Rainfall Not available.
Snow Depth Not available.
6:25 AM 7:34 PM
Waning Crescent, 2% visible
METAR KFNL 302355Z AUTO 08010KT 10SM CLR 26/12 A3023 RMK AO1 10280 20240 402800130 57003
Pressure 30.23 in
Visibility 10.0 miles
Clouds Clear
Heat Index 79 °F
Dew Point 53 °F
Humidity 41%
Rainfall Not available.
Snow Depth Not available.
6:25 AM 7:34 PM
Waning Crescent, 2% visible
METAR KFNL 302355Z AUTO 08010KT 10SM CLR 26/12 A3023 RMK AO1 10280 20240 402800130 57003

10-Day Weather Forecast

Almanac

Astronomy

Aug. 30, 2016 Rise Set
Actual Time
Civil Twilight
Nautical Twilight
Astronomical Twilight
Moon
Length of Visible Light
Length of Day
Tomorrow will be .
, % of the Moon is Illuminated

Today's Extremes

State Highs State Lows

Community

WunderPhotos

Upload Photos

1,935,958 photos uploaded!

WunderBlog® & News

Nearby

Air Quality

  Air Quality AQ Index Pollutant
Not available.

Snow Depth

Station Depth Elevation

Earthquake Activity

City Distance Mag. Time & Date
Minimum magnitude displayed is 2.5.

Coastal Water Temperatures

Place Temperature

Stations

Nearby Weather Stations

Station Location Temp. Windchill Dew Point Humidity Wind Precip. Elev Updated Type
                   

Watches & Warnings

There are currently no watches in effect.